sensor_id;sensor_type;location;lat;lon;timestamp;temperature;humidity
27224;DHT22;14965;50.660;13.226;2022-11-04T01:31:10;9.40;99.90
27224;DHT22;14965;50.660;13.226;2022-11-04T01:33:41;9.40;99.90
27224;DHT22;14965;50.660;13.226;2022-11-04T01:36:16;9.30;99.90
27224;DHT22;14965;50.660;13.226;2022-11-04T01:38:47;9.30;99.90
27224;DHT22;14965;50.660;13.226;2022-11-04T01:41:17;9.30;99.90
27224;DHT22;14965;50.660;13.226;2022-11-04T01:43:52;9.30;99.90
27224;DHT22;14965;50.660;13.226;2022-11-04T01:46:27;9.30;99.90
27224;DHT22;14965;50.660;13.226;2022-11-04T01:49:02;9.30;99.90
27224;DHT22;14965;50.660;13.226;2022-11-04T01:51:42;9.40;99.90
27224;DHT22;14965;50.660;13.226;2022-11-04T01:54:12;9.30;99.90
27224;DHT22;14965;50.660;13.226;2022-11-04T01:56:40;9.30;99.90
27224;DHT22;14965;50.660;13.226;2022-11-04T01:59:18;9.30;99.90
27224;DHT22;14965;50.660;13.226;2022-11-04T02:01:49;9.20;99.90
27224;DHT22;14965;50.660;13.226;2022-11-04T02:04:16;9.30;99.90
27224;DHT22;14965;50.660;13.226;2022-11-04T02:06:43;9.30;99.90
27224;DHT22;14965;50.660;13.226;2022-11-04T02:09:17;9.30;99.90
27224;DHT22;14965;50.660;13.226;2022-11-04T02:11:45;9.30;99.90
27224;DHT22;14965;50.660;13.226;2022-11-04T02:14:12;9.30;99.90
27224;DHT22;14965;50.660;13.226;2022-11-04T02:16:42;9.30;99.90
27224;DHT22;14965;50.660;13.226;2022-11-04T02:19:30;9.10;99.90
27224;DHT22;14965;50.660;13.226;2022-11-04T02:25:52;9.10;99.90
27224;DHT22;14965;50.660;13.226;2022-11-04T02:39:55;9.10;99.90
27224;DHT22;14965;50.660;13.226;2022-11-04T02:43:10;9.20;99.90
27224;DHT22;14965;50.660;13.226;2022-11-04T02:45:43;9.20;99.90
27224;DHT22;14965;50.660;13.226;2022-11-04T02:48:38;9.20;99.90
27224;DHT22;14965;50.660;13.226;2022-11-04T02:51:42;9.20;99.90
27224;DHT22;14965;50.660;13.226;2022-11-04T02:54:48;9.30;99.90
27224;DHT22;14965;50.660;13.226;2022-11-04T02:57:35;9.30;99.90
27224;DHT22;14965;50.660;13.226;2022-11-04T03:01:33;9.40;99.90
27224;DHT22;14965;50.660;13.226;2022-11-04T03:15:54;9.40;99.90
27224;DHT22;14965;50.660;13.226;2022-11-04T03:23:00;9.30;99.90
27224;DHT22;14965;50.660;13.226;2022-11-04T03:26:37;9.30;99.90
27224;DHT22;14965;50.660;13.226;2022-11-04T03:29:56;9.30;99.90
27224;DHT22;14965;50.660;13.226;2022-11-04T03:36:31;9.40;99.90
27224;DHT22;14965;50.660;13.226;2022-11-04T03:38:59;9.30;99.90
27224;DHT22;14965;50.660;13.226;2022-11-04T03:41:37;9.40;99.90
27224;DHT22;14965;50.660;13.226;2022-11-04T03:44:32;9.40;99.90
27224;DHT22;14965;50.660;13.226;2022-11-04T03:47:05;9.40;99.90
27224;DHT22;14965;50.660;13.226;2022-11-04T03:52:22;9.40;99.90
27224;DHT22;14965;50.660;13.226;2022-11-04T03:54:53;9.40;99.90
27224;DHT22;14965;50.660;13.226;2022-11-04T03:57:34;9.40;99.90
27224;DHT22;14965;50.660;13.226;2022-11-04T04:00:12;9.50;99.90
27224;DHT22;14965;50.660;13.226;2022-11-04T04:03:05;9.40;99.90
27224;DHT22;14965;50.660;13.226;2022-11-04T04:05:38;9.50;99.90
27224;DHT22;14965;50.660;13.226;2022-11-04T04:08:15;9.40;99.90
27224;DHT22;14965;50.660;13.226;2022-11-04T04:10:58;9.50;99.90
27224;DHT22;14965;50.660;13.226;2022-11-04T04:13:36;9.50;99.90
27224;DHT22;14965;50.660;13.226;2022-11-04T04:16:12;9.50;99.90
27224;DHT22;14965;50.660;13.226;2022-11-04T04:18:48;9.50;99.90
27224;DHT22;14965;50.660;13.226;2022-11-04T04:21:20;9.50;99.90
27224;DHT22;14965;50.660;13.226;2022-11-04T04:23:53;9.50;99.90
27224;DHT22;14965;50.660;13.226;2022-11-04T04:26:24;9.50;99.90
27224;DHT22;14965;50.660;13.226;2022-11-04T04:28:51;9.50;99.90
27224;DHT22;14965;50.660;13.226;2022-11-04T04:31:20;9.50;99.90
27224;DHT22;14965;50.660;13.226;2022-11-04T04:33:49;9.50;99.90
27224;DHT22;14965;50.660;13.226;2022-11-04T04:36:15;9.50;99.90
27224;DHT22;14965;50.660;13.226;2022-11-04T04:38:42;9.50;99.90
27224;DHT22;14965;50.660;13.226;2022-11-04T04:41:10;9.50;99.90
27224;DHT22;14965;50.660;13.226;2022-11-04T04:43:41;9.50;99.90
27224;DHT22;14965;50.660;13.226;2022-11-04T04:46:08;9.50;99.90
27224;DHT22;14965;50.660;13.226;2022-11-04T04:48:34;9.50;99.90
27224;DHT22;14965;50.660;13.226;2022-11-04T04:51:01;9.50;99.90
27224;DHT22;14965;50.660;13.226;2022-11-04T04:53:27;9.40;99.90
27224;DHT22;14965;50.660;13.226;2022-11-04T04:55:53;9.40;99.90
27224;DHT22;14965;50.660;13.226;2022-11-04T04:58:19;9.40;99.90
27224;DHT22;14965;50.660;13.226;2022-11-04T05:00:45;9.30;99.90
27224;DHT22;14965;50.660;13.226;2022-11-04T05:03:11;9.30;99.90
27224;DHT22;14965;50.660;13.226;2022-11-04T05:05:37;9.30;99.90
27224;DHT22;14965;50.660;13.226;2022-11-04T05:08:06;9.30;99.90
27224;DHT22;14965;50.660;13.226;2022-11-04T05:10:32;9.20;99.90
27224;DHT22;14965;50.660;13.226;2022-11-04T05:12:58;9.20;99.90
27224;DHT22;14965;50.660;13.226;2022-11-04T05:15:25;9.20;99.90
27224;DHT22;14965;50.660;13.226;2022-11-04T05:17:55;9.20;99.90
27224;DHT22;14965;50.660;13.226;2022-11-04T05:20:23;9.20;99.90
27224;DHT22;14965;50.660;13.226;2022-11-04T05:22:50;9.20;99.90
27224;DHT22;14965;50.660;13.226;2022-11-04T05:25:17;9.20;99.90
27224;DHT22;14965;50.660;13.226;2022-11-04T05:27:43;9.20;99.90
27224;DHT22;14965;50.660;13.226;2022-11-04T05:30:10;9.20;99.90
27224;DHT22;14965;50.660;13.226;2022-11-04T05:32:36;9.20;99.90
27224;DHT22;14965;50.660;13.226;2022-11-04T05:35:02;9.20;99.90
27224;DHT22;14965;50.660;13.226;2022-11-04T05:37:28;9.20;99.90
27224;DHT22;14965;50.660;13.226;2022-11-04T05:39:54;9.20;99.90
27224;DHT22;14965;50.660;13.226;2022-11-04T05:42:21;9.20;99.90
27224;DHT22;14965;50.660;13.226;2022-11-04T05:44:47;9.10;99.90
27224;DHT22;14965;50.660;13.226;2022-11-04T05:47:14;9.10;99.90
27224;DHT22;14965;50.660;13.226;2022-11-04T05:49:41;9.10;99.90
27224;DHT22;14965;50.660;13.226;2022-11-04T05:52:07;9.10;99.90
27224;DHT22;14965;50.660;13.226;2022-11-04T05:54:33;9.10;99.90
27224;DHT22;14965;50.660;13.226;2022-11-04T05:56:58;9.20;99.90
27224;DHT22;14965;50.660;13.226;2022-11-04T05:59:26;9.20;99.90
27224;DHT22;14965;50.660;13.226;2022-11-04T06:01:52;9.20;99.90
27224;DHT22;14965;50.660;13.226;2022-11-04T06:04:18;9.30;99.90
27224;DHT22;14965;50.660;13.226;2022-11-04T06:06:44;9.30;99.90
27224;DHT22;14965;50.660;13.226;2022-11-04T06:09:10;9.30;99.90
27224;DHT22;14965;50.660;13.226;2022-11-04T06:11:37;9.30;99.90
27224;DHT22;14965;50.660;13.226;2022-11-04T06:14:04;9.30;99.90
27224;DHT22;14965;50.660;13.226;2022-11-04T06:16:31;9.20;99.90
27224;DHT22;14965;50.660;13.226;2022-11-04T06:18:57;9.20;99.90
27224;DHT22;14965;50.660;13.226;2022-11-04T06:21:25;9.20;99.90
27224;DHT22;14965;50.660;13.226;2022-11-04T06:23:53;9.20;99.90
27224;DHT22;14965;50.660;13.226;2022-11-04T06:26:20;9.20;99.90
27224;DHT22;14965;50.660;13.226;2022-11-04T06:28:46;9.20;99.90
27224;DHT22;14965;50.660;13.226;2022-11-04T06:31:12;9.30;99.90
27224;DHT22;14965;50.660;13.226;2022-11-04T06:33:40;9.30;99.90
27224;DHT22;14965;50.660;13.226;2022-11-04T06:36:10;9.20;99.90
27224;DHT22;14965;50.660;13.226;2022-11-04T06:38:38;9.20;99.90
27224;DHT22;14965;50.660;13.226;2022-11-04T06:41:05;9.20;99.90
27224;DHT22;14965;50.660;13.226;2022-11-04T06:43:33;9.20;99.90
27224;DHT22;14965;50.660;13.226;2022-11-04T06:46:00;9.20;99.90
27224;DHT22;14965;50.660;13.226;2022-11-04T06:48:28;9.20;99.90
27224;DHT22;14965;50.660;13.226;2022-11-04T06:50:56;9.20;99.90
27224;DHT22;14965;50.660;13.226;2022-11-04T06:53:23;9.20;99.90
27224;DHT22;14965;50.660;13.226;2022-11-04T06:55:50;9.20;99.90
27224;DHT22;14965;50.660;13.226;2022-11-04T06:58:16;9.20;99.90
27224;DHT22;14965;50.660;13.226;2022-11-04T07:00:42;9.30;99.90
27224;DHT22;14965;50.660;13.226;2022-11-04T07:03:08;9.30;99.90
27224;DHT22;14965;50.660;13.226;2022-11-04T07:05:34;9.30;99.90
27224;DHT22;14965;50.660;13.226;2022-11-04T07:08:02;9.30;99.90
27224;DHT22;14965;50.660;13.226;2022-11-04T07:10:27;9.30;99.90
27224;DHT22;14965;50.660;13.226;2022-11-04T07:12:53;9.20;99.90
27224;DHT22;14965;50.660;13.226;2022-11-04T07:15:19;9.20;99.90
27224;DHT22;14965;50.660;13.226;2022-11-04T07:17:45;9.20;99.90
27224;DHT22;14965;50.660;13.226;2022-11-04T07:20:12;9.20;99.90
27224;DHT22;14965;50.660;13.226;2022-11-04T07:22:38;9.20;99.90
27224;DHT22;14965;50.660;13.226;2022-11-04T07:25:07;9.30;99.90
27224;DHT22;14965;50.660;13.226;2022-11-04T07:27:33;9.30;99.90
27224;DHT22;14965;50.660;13.226;2022-11-04T07:29:59;9.30;99.90
27224;DHT22;14965;50.660;13.226;2022-11-04T07:32:25;9.40;99.90
27224;DHT22;14965;50.660;13.226;2022-11-04T07:34:51;9.40;99.90
27224;DHT22;14965;50.660;13.226;2022-11-04T07:37:17;9.40;99.90
27224;DHT22;14965;50.660;13.226;2022-11-04T07:39:43;9.30;99.90
27224;DHT22;14965;50.660;13.226;2022-11-04T07:42:10;9.30;99.90
27224;DHT22;14965;50.660;13.226;2022-11-04T07:44:36;9.30;99.90
27224;DHT22;14965;50.660;13.226;2022-11-04T07:47:02;9.30;99.90
27224;DHT22;14965;50.660;13.226;2022-11-04T07:49:28;9.30;99.90
27224;DHT22;14965;50.660;13.226;2022-11-04T07:51:53;9.30;99.90
27224;DHT22;14965;50.660;13.226;2022-11-04T07:54:19;9.30;99.90
27224;DHT22;14965;50.660;13.226;2022-11-04T07:56:45;9.30;99.90
27224;DHT22;14965;50.660;13.226;2022-11-04T07:59:12;9.30;99.90
27224;DHT22;14965;50.660;13.226;2022-11-04T08:01:38;9.30;99.90
27224;DHT22;14965;50.660;13.226;2022-11-04T08:04:04;9.30;99.90
27224;DHT22;14965;50.660;13.226;2022-11-04T08:06:30;9.30;99.90
27224;DHT22;14965;50.660;13.226;2022-11-04T08:08:57;9.20;99.90
27224;DHT22;14965;50.660;13.226;2022-11-04T08:11:24;9.30;99.90
27224;DHT22;14965;50.660;13.226;2022-11-04T08:13:50;9.30;99.90
27224;DHT22;14965;50.660;13.226;2022-11-04T08:16:20;9.30;99.90
27224;DHT22;14965;50.660;13.226;2022-11-04T08:18:48;9.40;99.90
27224;DHT22;14965;50.660;13.226;2022-11-04T08:21:15;9.40;99.90
27224;DHT22;14965;50.660;13.226;2022-11-04T08:23:41;9.40;99.90
27224;DHT22;14965;50.660;13.226;2022-11-04T08:26:08;9.40;99.90
27224;DHT22;14965;50.660;13.226;2022-11-04T08:28:36;9.40;99.90
27224;DHT22;14965;50.660;13.226;2022-11-04T08:31:04;9.40;99.90
27224;DHT22;14965;50.660;13.226;2022-11-04T08:33:34;9.30;99.90
27224;DHT22;14965;50.660;13.226;2022-11-04T08:36:03;9.40;99.90
27224;DHT22;14965;50.660;13.226;2022-11-04T08:38:31;9.40;99.90
27224;DHT22;14965;50.660;13.226;2022-11-04T08:40:58;9.40;99.90
27224;DHT22;14965;50.660;13.226;2022-11-04T08:43:26;9.40;99.90
27224;DHT22;14965;50.660;13.226;2022-11-04T08:45:52;9.30;99.90
27224;DHT22;14965;50.660;13.226;2022-11-04T08:48:18;9.40;99.90
27224;DHT22;14965;50.660;13.226;2022-11-04T08:50:49;9.40;99.90
27224;DHT22;14965;50.660;13.226;2022-11-04T08:53:15;9.40;99.90
27224;DHT22;14965;50.660;13.226;2022-11-04T08:55:41;9.50;99.90
27224;DHT22;14965;50.660;13.226;2022-11-04T08:58:07;9.50;99.90
27224;DHT22;14965;50.660;13.226;2022-11-04T09:00:33;9.50;99.90
27224;DHT22;14965;50.660;13.226;2022-11-04T09:02:59;9.50;99.90
27224;DHT22;14965;50.660;13.226;2022-11-04T09:05:25;9.50;99.90
27224;DHT22;14965;50.660;13.226;2022-11-04T09:07:52;9.50;99.90
27224;DHT22;14965;50.660;13.226;2022-11-04T09:10:19;9.50;99.90
27224;DHT22;14965;50.660;13.226;2022-11-04T09:12:45;9.50;99.90
27224;DHT22;14965;50.660;13.226;2022-11-04T09:15:12;9.50;99.90
27224;DHT22;14965;50.660;13.226;2022-11-04T09:17:38;9.50;99.90
27224;DHT22;14965;50.660;13.226;2022-11-04T09:20:05;9.50;99.90
27224;DHT22;14965;50.660;13.226;2022-11-04T09:22:32;9.50;99.90
27224;DHT22;14965;50.660;13.226;2022-11-04T09:24:59;9.40;99.90
27224;DHT22;14965;50.660;13.226;2022-11-04T09:27:26;9.40;99.90
27224;DHT22;14965;50.660;13.226;2022-11-04T09:29:52;9.30;99.90
27224;DHT22;14965;50.660;13.226;2022-11-04T09:32:18;9.30;99.90
27224;DHT22;14965;50.660;13.226;2022-11-04T09:34:43;9.20;99.90
27224;DHT22;14965;50.660;13.226;2022-11-04T09:37:09;9.20;99.90
27224;DHT22;14965;50.660;13.226;2022-11-04T09:39:35;9.00;99.90
27224;DHT22;14965;50.660;13.226;2022-11-04T09:42:24;8.90;99.90
27224;DHT22;14965;50.660;13.226;2022-11-04T09:45:06;8.80;99.90
27224;DHT22;14965;50.660;13.226;2022-11-04T09:47:38;8.80;99.90
27224;DHT22;14965;50.660;13.226;2022-11-04T09:50:13;8.80;99.90
27224;DHT22;14965;50.660;13.226;2022-11-04T09:52:48;8.70;99.90
27224;DHT22;14965;50.660;13.226;2022-11-04T09:55:22;8.70;99.90
27224;DHT22;14965;50.660;13.226;2022-11-04T09:57:56;8.70;99.90
27224;DHT22;14965;50.660;13.226;2022-11-04T10:00:23;8.70;99.90
27224;DHT22;14965;50.660;13.226;2022-11-04T10:02:55;8.70;99.90
27224;DHT22;14965;50.660;13.226;2022-11-04T10:05:48;8.70;99.90
27224;DHT22;14965;50.660;13.226;2022-11-04T10:08:40;8.70;99.90
27224;DHT22;14965;50.660;13.226;2022-11-04T10:11:20;8.70;99.90
27224;DHT22;14965;50.660;13.226;2022-11-04T10:14:20;8.80;99.90
27224;DHT22;14965;50.660;13.226;2022-11-04T10:17:06;8.80;99.90
27224;DHT22;14965;50.660;13.226;2022-11-04T10:19:54;8.80;99.90
27224;DHT22;14965;50.660;13.226;2022-11-04T10:22:31;8.80;99.90
27224;DHT22;14965;50.660;13.226;2022-11-04T10:25:09;8.80;99.90
27224;DHT22;14965;50.660;13.226;2022-11-04T10:27:42;8.80;99.90
27224;DHT22;14965;50.660;13.226;2022-11-04T10:30:17;8.80;99.90
27224;DHT22;14965;50.660;13.226;2022-11-04T10:32:55;8.80;99.90
27224;DHT22;14965;50.660;13.226;2022-11-04T10:35:30;8.80;99.90
27224;DHT22;14965;50.660;13.226;2022-11-04T10:38:15;8.80;99.90
27224;DHT22;14965;50.660;13.226;2022-11-04T10:40:47;8.90;99.90
27224;DHT22;14965;50.660;13.226;2022-11-04T10:43:17;8.90;99.90
27224;DHT22;14965;50.660;13.226;2022-11-04T10:45:57;8.80;99.90
27224;DHT22;14965;50.660;13.226;2022-11-04T10:48:36;8.70;99.90
27224;DHT22;14965;50.660;13.226;2022-11-04T10:51:08;8.70;99.90
27224;DHT22;14965;50.660;13.226;2022-11-04T10:53:34;8.60;99.90
27224;DHT22;14965;50.660;13.226;2022-11-04T10:56:30;8.60;99.90
27224;DHT22;14965;50.660;13.226;2022-11-04T11:03:38;8.60;99.90
27224;DHT22;14965;50.660;13.226;2022-11-04T11:06:38;8.50;99.90
27224;DHT22;14965;50.660;13.226;2022-11-04T11:09:22;8.50;99.90
27224;DHT22;14965;50.660;13.226;2022-11-04T11:11:55;8.40;99.90
27224;DHT22;14965;50.660;13.226;2022-11-04T11:14:34;8.40;99.90
27224;DHT22;14965;50.660;13.226;2022-11-04T11:17:19;8.50;99.90
27224;DHT22;14965;50.660;13.226;2022-11-04T11:19:56;8.30;99.90
27224;DHT22;14965;50.660;13.226;2022-11-04T11:22:37;8.30;99.90
27224;DHT22;14965;50.660;13.226;2022-11-04T11:25:24;8.40;99.90
27224;DHT22;14965;50.660;13.226;2022-11-04T11:27:54;8.40;99.90
27224;DHT22;14965;50.660;13.226;2022-11-04T11:30:25;8.40;99.90
27224;DHT22;14965;50.660;13.226;2022-11-04T11:32:57;8.30;99.90
27224;DHT22;14965;50.660;13.226;2022-11-04T11:35:31;8.30;99.90
27224;DHT22;14965;50.660;13.226;2022-11-04T11:38:12;8.40;99.90
27224;DHT22;14965;50.660;13.226;2022-11-04T11:40:49;8.30;99.90
27224;DHT22;14965;50.660;13.226;2022-11-04T11:44:05;8.40;99.90
27224;DHT22;14965;50.660;13.226;2022-11-04T11:46:50;8.40;99.90
27224;DHT22;14965;50.660;13.226;2022-11-04T11:52:52;8.50;99.90
27224;DHT22;14965;50.660;13.226;2022-11-04T11:55:51;8.60;99.90
27224;DHT22;14965;50.660;13.226;2022-11-04T11:58:36;8.50;99.90
27224;DHT22;14965;50.660;13.226;2022-11-04T12:01:15;8.60;99.90
27224;DHT22;14965;50.660;13.226;2022-11-04T12:03:50;8.60;99.90
27224;DHT22;14965;50.660;13.226;2022-11-04T12:06:38;8.70;99.90
27224;DHT22;14965;50.660;13.226;2022-11-04T12:09:35;8.80;99.90
27224;DHT22;14965;50.660;13.226;2022-11-04T12:12:32;8.80;99.90
27224;DHT22;14965;50.660;13.226;2022-11-04T12:15:28;8.80;99.90
27224;DHT22;14965;50.660;13.226;2022-11-04T12:18:19;8.90;99.90
27224;DHT22;14965;50.660;13.226;2022-11-04T12:21:03;8.90;99.90
27224;DHT22;14965;50.660;13.226;2022-11-04T12:23:49;9.00;99.90
27224;DHT22;14965;50.660;13.226;2022-11-04T12:26:36;9.00;99.90
27224;DHT22;14965;50.660;13.226;2022-11-04T12:29:29;8.90;99.90
27224;DHT22;14965;50.660;13.226;2022-11-04T12:32:23;8.90;99.90
27224;DHT22;14965;50.660;13.226;2022-11-04T12:35:09;8.80;99.90
27224;DHT22;14965;50.660;13.226;2022-11-04T12:38:57;8.70;99.90
27224;DHT22;14965;50.660;13.226;2022-11-04T12:41:08;8.50;99.90
27224;DHT22;14965;50.660;13.226;2022-11-04T12:43:50;8.60;99.90
27224;DHT22;14965;50.660;13.226;2022-11-04T12:56:00;8.50;99.90
27224;DHT22;14965;50.660;13.226;2022-11-04T13:02:54;8.50;99.90
27224;DHT22;14965;50.660;13.226;2022-11-04T13:06:36;8.50;99.90
27224;DHT22;14965;50.660;13.226;2022-11-04T13:21:09;8.30;99.90
27224;DHT22;14965;50.660;13.226;2022-11-04T13:27:20;8.20;99.90
27224;DHT22;14965;50.660;13.226;2022-11-04T13:30:22;8.20;99.90
27224;DHT22;14965;50.660;13.226;2022-11-04T13:33:07;8.30;99.90
27224;DHT22;14965;50.660;13.226;2022-11-04T13:35:58;8.20;99.90
27224;DHT22;14965;50.660;13.226;2022-11-04T13:38:43;8.20;99.90
27224;DHT22;14965;50.660;13.226;2022-11-04T13:45:19;8.20;99.90
27224;DHT22;14965;50.660;13.226;2022-11-04T13:51:21;8.10;99.90
27224;DHT22;14965;50.660;13.226;2022-11-04T13:54:02;8.20;99.90
27224;DHT22;14965;50.660;13.226;2022-11-04T13:56:34;8.20;99.90
27224;DHT22;14965;50.660;13.226;2022-11-04T13:59:19;8.20;99.90
27224;DHT22;14965;50.660;13.226;2022-11-04T14:02:37;8.10;99.90
27224;DHT22;14965;50.660;13.226;2022-11-04T14:12:33;8.00;99.90
27224;DHT22;14965;50.660;13.226;2022-11-04T14:18:36;8.00;99.90
27224;DHT22;14965;50.660;13.226;2022-11-04T14:21:13;8.00;99.90
27224;DHT22;14965;50.660;13.226;2022-11-04T14:23:59;8.00;99.90
27224;DHT22;14965;50.660;13.226;2022-11-04T14:26:51;8.10;99.90
27224;DHT22;14965;50.660;13.226;2022-11-04T14:33:38;8.00;99.90
27224;DHT22;14965;50.660;13.226;2022-11-04T14:43:23;8.00;99.90
27224;DHT22;14965;50.660;13.226;2022-11-04T14:46:01;8.00;99.90
27224;DHT22;14965;50.660;13.226;2022-11-04T14:48:41;7.90;99.90
27224;DHT22;14965;50.660;13.226;2022-11-04T14:51:24;7.90;99.90
27224;DHT22;14965;50.660;13.226;2022-11-04T14:54:03;7.90;99.90
27224;DHT22;14965;50.660;13.226;2022-11-04T14:56:40;7.90;99.90
27224;DHT22;14965;50.660;13.226;2022-11-04T14:59:28;7.90;99.90
27224;DHT22;14965;50.660;13.226;2022-11-04T15:01:59;7.90;99.90
27224;DHT22;14965;50.660;13.226;2022-11-04T15:04:29;7.90;99.90
27224;DHT22;14965;50.660;13.226;2022-11-04T15:06:58;7.90;99.90
27224;DHT22;14965;50.660;13.226;2022-11-04T15:09:27;7.80;99.90
27224;DHT22;14965;50.660;13.226;2022-11-04T15:12:08;7.70;99.90
27224;DHT22;14965;50.660;13.226;2022-11-04T15:14:36;7.70;99.90
27224;DHT22;14965;50.660;13.226;2022-11-04T15:17:03;7.70;99.90
27224;DHT22;14965;50.660;13.226;2022-11-04T15:19:32;7.70;99.90
27224;DHT22;14965;50.660;13.226;2022-11-04T15:22:01;7.80;99.90
27224;DHT22;14965;50.660;13.226;2022-11-04T15:24:30;7.90;99.90
27224;DHT22;14965;50.660;13.226;2022-11-04T15:27:00;7.70;99.90
27224;DHT22;14965;50.660;13.226;2022-11-04T15:29:27;7.70;99.90
27224;DHT22;14965;50.660;13.226;2022-11-04T15:31:55;7.70;99.90
27224;DHT22;14965;50.660;13.226;2022-11-04T15:34:23;7.70;99.90
27224;DHT22;14965;50.660;13.226;2022-11-04T15:36:53;7.70;99.90
27224;DHT22;14965;50.660;13.226;2022-11-04T15:39:23;7.70;99.90
27224;DHT22;14965;50.660;13.226;2022-11-04T15:41:54;7.70;99.90
27224;DHT22;14965;50.660;13.226;2022-11-04T15:44:24;7.60;99.90
27224;DHT22;14965;50.660;13.226;2022-11-04T15:46:54;7.60;99.90
27224;DHT22;14965;50.660;13.226;2022-11-04T15:49:23;7.50;99.90
27224;DHT22;14965;50.660;13.226;2022-11-04T15:51:54;7.50;99.90
27224;DHT22;14965;50.660;13.226;2022-11-04T15:54:26;7.50;99.90
27224;DHT22;14965;50.660;13.226;2022-11-04T15:56:56;7.50;99.90
27224;DHT22;14965;50.660;13.226;2022-11-04T15:59:26;7.50;99.90
27224;DHT22;14965;50.660;13.226;2022-11-04T16:01:54;7.40;99.90
27224;DHT22;14965;50.660;13.226;2022-11-04T16:04:23;7.50;99.90
27224;DHT22;14965;50.660;13.226;2022-11-04T16:07:20;7.50;99.90
27224;DHT22;14965;50.660;13.226;2022-11-04T16:09:48;7.50;99.90
27224;DHT22;14965;50.660;13.226;2022-11-04T16:12:23;7.50;99.90
27224;DHT22;14965;50.660;13.226;2022-11-04T16:15:03;7.40;99.90
27224;DHT22;14965;50.660;13.226;2022-11-04T16:17:50;7.50;99.90
27224;DHT22;14965;50.660;13.226;2022-11-04T16:20:16;7.40;99.90
27224;DHT22;14965;50.660;13.226;2022-11-04T16:22:46;7.50;99.90
27224;DHT22;14965;50.660;13.226;2022-11-04T16:25:19;7.40;99.90
27224;DHT22;14965;50.660;13.226;2022-11-04T16:27:48;7.40;99.90
27224;DHT22;14965;50.660;13.226;2022-11-04T16:30:20;7.50;99.90
27224;DHT22;14965;50.660;13.226;2022-11-04T16:32:49;7.50;99.90
27224;DHT22;14965;50.660;13.226;2022-11-04T16:35:18;7.50;99.90
27224;DHT22;14965;50.660;13.226;2022-11-04T16:37:47;7.50;99.90
27224;DHT22;14965;50.660;13.226;2022-11-04T16:40:21;7.60;99.90
27224;DHT22;14965;50.660;13.226;2022-11-04T16:42:56;7.50;99.90
27224;DHT22;14965;50.660;13.226;2022-11-04T16:45:23;7.50;99.90
27224;DHT22;14965;50.660;13.226;2022-11-04T16:47:52;7.50;99.90
27224;DHT22;14965;50.660;13.226;2022-11-04T16:50:19;7.50;99.90
27224;DHT22;14965;50.660;13.226;2022-11-04T16:52:46;7.50;99.90
27224;DHT22;14965;50.660;13.226;2022-11-04T16:55:13;7.50;99.90
27224;DHT22;14965;50.660;13.226;2022-11-04T16:57:40;7.40;99.90
27224;DHT22;14965;50.660;13.226;2022-11-04T17:00:07;7.50;99.90
27224;DHT22;14965;50.660;13.226;2022-11-04T17:02:42;7.40;99.90
27224;DHT22;14965;50.660;13.226;2022-11-04T17:05:14;7.40;99.90
27224;DHT22;14965;50.660;13.226;2022-11-04T17:07:43;7.50;99.90
27224;DHT22;14965;50.660;13.226;2022-11-04T17:10:15;7.30;99.90
27224;DHT22;14965;50.660;13.226;2022-11-04T17:12:44;7.40;99.90
27224;DHT22;14965;50.660;13.226;2022-11-04T17:15:12;7.30;99.90
27224;DHT22;14965;50.660;13.226;2022-11-04T17:17:39;7.30;99.90
27224;DHT22;14965;50.660;13.226;2022-11-04T17:20:07;7.30;99.90
27224;DHT22;14965;50.660;13.226;2022-11-04T17:22:36;7.30;99.90
27224;DHT22;14965;50.660;13.226;2022-11-04T17:25:02;7.30;99.90
27224;DHT22;14965;50.660;13.226;2022-11-04T17:27:30;7.40;99.90
27224;DHT22;14965;50.660;13.226;2022-11-04T17:29:58;7.40;99.90
27224;DHT22;14965;50.660;13.226;2022-11-04T17:32:24;7.40;99.90
27224;DHT22;14965;50.660;13.226;2022-11-04T17:34:50;7.40;99.90
27224;DHT22;14965;50.660;13.226;2022-11-04T17:37:17;7.50;99.90
27224;DHT22;14965;50.660;13.226;2022-11-04T17:39:43;7.40;99.90
27224;DHT22;14965;50.660;13.226;2022-11-04T17:42:09;7.40;99.90
27224;DHT22;14965;50.660;13.226;2022-11-04T17:44:36;7.40;99.90
27224;DHT22;14965;50.660;13.226;2022-11-04T17:47:04;7.40;99.90
27224;DHT22;14965;50.660;13.226;2022-11-04T17:49:35;7.40;99.90
27224;DHT22;14965;50.660;13.226;2022-11-04T17:52:01;7.40;99.90
27224;DHT22;14965;50.660;13.226;2022-11-04T17:54:31;7.30;99.90
27224;DHT22;14965;50.660;13.226;2022-11-04T17:57:05;7.30;99.90
27224;DHT22;14965;50.660;13.226;2022-11-04T17:59:47;7.30;99.90
27224;DHT22;14965;50.660;13.226;2022-11-04T18:05:42;7.30;99.90
27224;DHT22;14965;50.660;13.226;2022-11-04T18:08:36;7.20;99.90
27224;DHT22;14965;50.660;13.226;2022-11-04T18:11:12;7.20;99.90
27224;DHT22;14965;50.660;13.226;2022-11-04T18:13:42;7.30;99.90
27224;DHT22;14965;50.660;13.226;2022-11-04T18:16:13;7.20;99.90
27224;DHT22;14965;50.660;13.226;2022-11-04T18:18:44;7.30;99.90
27224;DHT22;14965;50.660;13.226;2022-11-04T18:21:16;7.40;99.90
27224;DHT22;14965;50.660;13.226;2022-11-04T18:23:47;7.30;99.90
27224;DHT22;14965;50.660;13.226;2022-11-04T18:26:13;7.30;99.90
27224;DHT22;14965;50.660;13.226;2022-11-04T18:28:39;7.40;99.90
27224;DHT22;14965;50.660;13.226;2022-11-04T18:31:09;7.40;99.90
27224;DHT22;14965;50.660;13.226;2022-11-04T18:33:38;7.30;99.90
27224;DHT22;14965;50.660;13.226;2022-11-04T18:36:04;7.40;99.90
27224;DHT22;14965;50.660;13.226;2022-11-04T18:38:31;7.40;99.90
27224;DHT22;14965;50.660;13.226;2022-11-04T18:41:00;7.30;99.90
27224;DHT22;14965;50.660;13.226;2022-11-04T18:43:31;7.40;99.90
27224;DHT22;14965;50.660;13.226;2022-11-04T18:46:05;7.40;99.90
27224;DHT22;14965;50.660;13.226;2022-11-04T18:48:40;7.40;99.90
27224;DHT22;14965;50.660;13.226;2022-11-04T18:51:21;7.40;99.90
27224;DHT22;14965;50.660;13.226;2022-11-04T18:53:50;7.30;99.90
27224;DHT22;14965;50.660;13.226;2022-11-04T18:56:18;7.30;99.90
27224;DHT22;14965;50.660;13.226;2022-11-04T18:58:46;7.30;99.90
27224;DHT22;14965;50.660;13.226;2022-11-04T19:01:18;7.40;99.90
27224;DHT22;14965;50.660;13.226;2022-11-04T19:03:48;7.30;99.90
27224;DHT22;14965;50.660;13.226;2022-11-04T19:06:17;7.30;99.90
27224;DHT22;14965;50.660;13.226;2022-11-04T19:08:44;7.40;99.90
27224;DHT22;14965;50.660;13.226;2022-11-04T19:11:16;7.40;99.90
27224;DHT22;14965;50.660;13.226;2022-11-04T19:13:49;7.50;99.90
27224;DHT22;14965;50.660;13.226;2022-11-04T19:16:15;7.40;99.90
27224;DHT22;14965;50.660;13.226;2022-11-04T19:18:46;7.50;99.90
27224;DHT22;14965;50.660;13.226;2022-11-04T19:21:13;7.50;99.90
27224;DHT22;14965;50.660;13.226;2022-11-04T19:23:39;7.50;99.90
27224;DHT22;14965;50.660;13.226;2022-11-04T19:26:11;7.50;99.90
27224;DHT22;14965;50.660;13.226;2022-11-04T19:28:40;7.50;99.90